This is the latest recevied weather packets stored in our database for station/object KI4NG. If no packets are shown the sender has not sent any weather packets the latest 10 day(s).
| Time | Temp. | Humidity | Pressure | Rain* | Wind** | Luminosity | Snow |
|---|---|---|---|---|---|---|---|
| 1788566950 | 27.22° C | 75% | 1018.1 hPa | 0 mm | - | 0 W/m² | - |
| 1788566645 | 27.22° C | 78% | 1017.8 hPa | 0 mm | - | 0 W/m² | - |
| 1788566341 | 27.78° C | 74% | 1017.9 hPa | 0 mm | - | 3 W/m² | - |
| 1788566036 | 27.78° C | 76% | 1017.8 hPa | 0 mm | - | 6 W/m² | - |
| 1788565736 | 27.78° C | 76% | 1017.8 hPa | 0 mm | - | 8 W/m² | - |
| 1788565430 | 27.78° C | 76% | 1017.7 hPa | 0 mm | - | 8 W/m² | - |
| 1788565127 | 27.78° C | 75% | 1017.9 hPa | 0 mm | - | 11 W/m² | - |
| 1788564822 | 27.78° C | 75% | 1018.1 hPa | 0 mm | - | 17 W/m² | - |
| 1788564519 | 28.33° C | 74% | 1018 hPa | 0 mm | - | 21 W/m² | - |
| 1788564215 | 28.89° C | 73% | 1018 hPa | 0 mm | - | 29 W/m² | - |
| 1788563911 | 29.44° C | 72% | 1018 hPa | 0 mm | - | 39 W/m² | - |
| 1788563605 | 30° C | 73% | 1017.9 hPa | 0 mm | - | 50 W/m² | - |
| 1788563301 | 30.56° C | 70% | 1017.8 hPa | 0 mm | - | 62 W/m² | - |
| 1788562999 | 30.56° C | 71% | 1017.7 hPa | 0 mm | - | 71 W/m² | - |
| 1788562694 | 31.11° C | 71% | 1017.4 hPa | 0 mm | - | 83 W/m² | - |
| 1788562392 | 30.56° C | 72% | 1017.3 hPa | 0 mm | - | 81 W/m² | - |
| 1788562092 | 31.11° C | 70% | 1017.5 hPa | 0 mm | - | 81 W/m² | - |
| 1788561788 | 31.11° C | 69% | 1017.1 hPa | 0 mm | - | 78 W/m² | - |
| 1788561487 | 31.11° C | 69% | 1017.2 hPa | 0 mm | - | 69 W/m² | - |
| 1788561181 | 31.11° C | 68% | 1017.1 hPa | 0 mm | - | 88 W/m² | - |
| 1788560878 | 31.67° C | 67% | 1017.1 hPa | 0 mm | - | 78 W/m² | - |
| 1788560573 | 32.22° C | 66% | 1017.1 hPa | 0 mm | - | 135 W/m² | - |
| 1788560273 | 32.22° C | 67% | 1017 hPa | 0 mm | - | 184 W/m² | - |
| 1788559967 | 31.67° C | 67% | 1017.1 hPa | 0 mm | - | 192 W/m² | - |
| 1788559663 | 32.22° C | 67% | 1017 hPa | 0 mm | - | 238 W/m² | - |
* Rain latest hour (hover to see other rain measurements)
** Current wind speed in m/s (hover to see current wind gust speed)